createdAt,value
2022-12-08T00:00:07.710Z,7.80
2022-12-08T00:02:58.592Z,8.10
2022-12-08T00:05:43.889Z,7.20
2022-12-08T00:08:29.032Z,7.30
2022-12-08T00:10:55.662Z,8.30
2022-12-08T00:13:22.303Z,8.80
2022-12-08T00:15:48.933Z,7.60
2022-12-08T00:18:15.572Z,5.70
2022-12-08T00:20:42.204Z,5.10
2022-12-08T00:23:08.810Z,4.30
2022-12-08T00:25:36.815Z,3.70
2022-12-08T00:28:03.549Z,4.30
2022-12-08T00:30:30.186Z,4.20
2022-12-08T00:32:56.732Z,4.60
2022-12-08T00:35:23.458Z,4.60
2022-12-08T00:37:56.149Z,4.90
2022-12-08T00:40:26.138Z,4.40
2022-12-08T00:42:52.755Z,4.60
2022-12-08T00:45:19.427Z,4.80
2022-12-08T00:47:46.066Z,4.50
2022-12-08T00:50:12.685Z,4.70
2022-12-08T00:52:39.342Z,4.90
2022-12-08T00:55:06.831Z,4.50
2022-12-08T00:57:33.433Z,4.50
2022-12-08T01:00:00.188Z,4.40
2022-12-08T01:02:27.065Z,4.30
2022-12-08T01:04:53.658Z,3.90
2022-12-08T01:07:20.388Z,3.80
2022-12-08T01:09:47.027Z,3.30
2022-12-08T01:12:13.662Z,3.30
2022-12-08T01:14:40.299Z,3.10
2022-12-08T01:17:07.215Z,2.70
2022-12-08T01:19:33.987Z,3.20
2022-12-08T01:22:00.645Z,3.30
2022-12-08T01:24:27.313Z,5.10
2022-12-08T01:26:53.963Z,7.60
2022-12-08T01:29:20.600Z,8.20
2022-12-08T01:31:47.246Z,8.50
2022-12-08T01:34:14.266Z,7.90
2022-12-08T01:36:41.676Z,7.70
2022-12-08T01:39:13.633Z,7.90
2022-12-08T01:41:41.455Z,8.10
2022-12-08T01:44:08.256Z,7.90
2022-12-08T01:46:37.513Z,8.00
2022-12-08T01:49:35.289Z,8.00
2022-12-08T01:52:14.036Z,6.40
2022-12-08T01:54:53.009Z,4.60
2022-12-08T01:57:22.350Z,4.00
2022-12-08T02:00:16.841Z,4.00
2022-12-08T02:03:03.507Z,3.80
2022-12-08T02:05:36.333Z,3.90
2022-12-08T02:08:10.052Z,3.70
2022-12-08T02:10:39.533Z,4.60
2022-12-08T02:13:10.364Z,4.90
2022-12-08T02:15:59.427Z,4.80
2022-12-08T02:19:02.093Z,5.70
2022-12-08T02:21:51.685Z,6.10
2022-12-08T02:24:45.660Z,6.70
2022-12-08T02:27:46.194Z,7.30
2022-12-08T02:30:12.839Z,7.10
2022-12-08T02:33:10.448Z,6.60
2022-12-08T02:35:48.985Z,5.90
2022-12-08T02:38:40.643Z,5.90
2022-12-08T02:41:35.458Z,5.30
2022-12-08T02:44:13.045Z,6.60
2022-12-08T02:46:46.977Z,6.90
2022-12-08T02:49:16.082Z,8.20
2022-12-08T02:51:42.869Z,8.90
2022-12-08T02:54:09.910Z,10.50
2022-12-08T02:56:45.780Z,10.00
2022-12-08T02:59:24.567Z,9.50
2022-12-08T03:02:12.278Z,8.80
2022-12-08T03:04:57.507Z,8.00
2022-12-08T03:07:50.189Z,7.10
2022-12-08T03:10:42.678Z,6.60
2022-12-08T03:13:27.844Z,7.20
2022-12-08T03:15:56.086Z,8.20
2022-12-08T03:18:28.803Z,10.10
2022-12-08T03:20:55.838Z,10.00
2022-12-08T03:23:24.971Z,9.20
2022-12-08T03:25:57.957Z,7.90
2022-12-08T03:28:25.132Z,6.80
2022-12-08T03:30:57.316Z,6.60
2022-12-08T03:33:31.427Z,6.50
2022-12-08T03:36:01.316Z,8.10
2022-12-08T03:38:40.604Z,9.80
2022-12-08T03:41:19.273Z,9.70
2022-12-08T03:43:57.944Z,8.80
2022-12-08T03:48:53.271Z,6.90
2022-12-08T03:51:20.441Z,5.30
2022-12-08T03:53:47.673Z,4.50
2022-12-08T03:56:33.047Z,3.90
2022-12-08T03:59:00.023Z,4.40
2022-12-08T04:01:27.196Z,4.00
2022-12-08T04:03:54.177Z,4.30
2022-12-08T04:06:21.699Z,4.10
2022-12-08T04:08:49.397Z,4.00
2022-12-08T04:11:16.856Z,4.10
2022-12-08T04:13:43.672Z,3.90
2022-12-08T04:16:19.830Z,4.20
2022-12-08T04:18:47.108Z,4.00
2022-12-08T04:21:14.715Z,4.10
2022-12-08T04:23:41.715Z,4.40
2022-12-08T04:26:08.863Z,4.40
2022-12-08T04:28:36.388Z,4.90
2022-12-08T04:31:03.809Z,4.70
2022-12-08T04:33:30.785Z,4.70
2022-12-08T04:35:57.420Z,4.50
2022-12-08T04:38:24.196Z,4.20
2022-12-08T04:40:50.808Z,3.90
2022-12-08T04:43:17.556Z,3.90
2022-12-08T04:45:44.210Z,3.50
2022-12-08T04:48:14.225Z,3.50
2022-12-08T04:50:42.935Z,3.10
2022-12-08T04:53:11.160Z,3.10
2022-12-08T04:55:40.717Z,2.90
2022-12-08T04:58:07.572Z,3.20
2022-12-08T05:00:34.175Z,3.30
2022-12-08T05:03:01.015Z,3.40
2022-12-08T05:05:27.747Z,3.20
2022-12-08T05:07:54.577Z,3.60
2022-12-08T05:10:21.324Z,3.60
2022-12-08T05:12:47.962Z,3.70
2022-12-08T05:15:14.713Z,3.40
2022-12-08T05:17:41.444Z,3.90
2022-12-08T05:20:09.177Z,3.50
2022-12-08T05:22:35.937Z,4.00
2022-12-08T05:25:02.890Z,3.70
2022-12-08T05:27:30.140Z,3.30
2022-12-08T05:29:56.708Z,3.00
2022-12-08T05:32:23.359Z,3.10
2022-12-08T05:34:49.948Z,4.60
2022-12-08T05:37:16.764Z,5.30
2022-12-08T05:39:43.428Z,4.00
2022-12-08T05:42:10.183Z,4.10
2022-12-08T05:44:36.988Z,3.40
2022-12-08T05:47:03.819Z,3.20
2022-12-08T05:49:30.588Z,3.30
2022-12-08T05:51:57.226Z,3.30
2022-12-08T05:54:23.863Z,3.60
2022-12-08T05:56:50.500Z,3.40
2022-12-08T05:59:17.140Z,3.20
2022-12-08T06:01:44.250Z,2.80
2022-12-08T06:04:11.129Z,3.20
2022-12-08T06:06:38.171Z,3.10
2022-12-08T06:09:05.627Z,2.90
2022-12-08T06:11:32.982Z,3.30
2022-12-08T06:14:00.278Z,3.40
2022-12-08T06:16:27.830Z,3.40
2022-12-08T06:18:55.489Z,3.30
2022-12-08T06:21:22.602Z,3.00
2022-12-08T06:23:51.555Z,3.20
2022-12-08T06:26:19.148Z,3.10
2022-12-08T06:28:45.803Z,2.90
2022-12-08T06:31:24.619Z,2.90
2022-12-08T06:33:52.229Z,2.50
2022-12-08T06:36:21.470Z,2.60
2022-12-08T06:38:48.660Z,2.60
2022-12-08T06:41:16.456Z,2.50
2022-12-08T06:43:43.942Z,2.50
2022-12-08T06:46:17.226Z,2.50
2022-12-08T06:48:44.591Z,2.90
2022-12-08T06:51:14.505Z,2.90
2022-12-08T06:53:42.315Z,2.90
2022-12-08T06:56:09.440Z,2.60
2022-12-08T06:58:36.506Z,2.20
2022-12-08T07:01:08.295Z,1.80
2022-12-08T07:03:36.605Z,1.90
2022-12-08T07:06:04.720Z,1.90
2022-12-08T07:08:32.520Z,2.10
2022-12-08T07:10:59.572Z,2.00
2022-12-08T07:13:26.250Z,2.00
2022-12-08T07:15:52.845Z,1.80
2022-12-08T07:18:19.483Z,1.70
2022-12-08T07:20:46.122Z,1.80
2022-12-08T07:23:12.707Z,1.80
2022-12-08T07:25:39.395Z,1.90
2022-12-08T07:28:10.845Z,2.00
2022-12-08T07:30:38.802Z,2.50
2022-12-08T07:33:06.166Z,3.20
2022-12-08T07:35:35.076Z,2.80
2022-12-08T07:38:02.354Z,2.90
2022-12-08T07:40:29.018Z,3.20
2022-12-08T07:42:55.652Z,3.80
2022-12-08T07:45:25.635Z,3.90
2022-12-08T07:47:56.388Z,3.60
2022-12-08T07:50:23.065Z,3.00
2022-12-08T07:52:49.707Z,2.90
2022-12-08T07:55:16.370Z,3.00
2022-12-08T07:57:42.978Z,2.90
2022-12-08T08:00:10.740Z,3.00
2022-12-08T08:02:41.488Z,3.20
2022-12-08T08:05:09.501Z,3.30
2022-12-08T08:07:36.841Z,3.30
2022-12-08T08:10:05.014Z,3.30
2022-12-08T08:12:32.934Z,3.30
2022-12-08T08:15:00.922Z,2.80
2022-12-08T08:17:29.309Z,3.10
2022-12-08T08:19:56.740Z,3.20
2022-12-08T08:22:24.627Z,3.20
2022-12-08T08:24:51.965Z,3.30
2022-12-08T08:27:19.192Z,3.30
2022-12-08T08:29:46.248Z,3.40
2022-12-08T08:32:13.095Z,3.00
2022-12-08T08:34:39.734Z,3.20
2022-12-08T08:37:06.431Z,3.10
2022-12-08T08:39:33.220Z,3.30
2022-12-08T08:41:59.797Z,3.50
2022-12-08T08:44:26.599Z,3.60
2022-12-08T08:46:53.361Z,3.70
2022-12-08T08:49:20.756Z,3.80
2022-12-08T08:51:47.523Z,3.70
2022-12-08T08:54:14.884Z,3.50
2022-12-08T08:56:41.921Z,3.80
2022-12-08T08:59:09.285Z,3.60
2022-12-08T09:01:36.066Z,3.80
2022-12-08T09:04:02.917Z,3.10
2022-12-08T09:06:30.029Z,3.00
2022-12-08T09:08:56.834Z,2.90
2022-12-08T09:11:23.775Z,3.70
2022-12-08T09:13:51.618Z,4.20
2022-12-08T09:16:19.471Z,4.00
2022-12-08T09:18:47.897Z,4.20
2022-12-08T09:21:19.735Z,5.60
2022-12-08T09:23:46.398Z,5.70
2022-12-08T09:26:13.000Z,5.40
2022-12-08T09:28:39.676Z,6.20
2022-12-08T09:31:06.269Z,5.30
2022-12-08T09:33:33.452Z,5.80
2022-12-08T09:36:04.337Z,5.80
2022-12-08T09:38:31.134Z,6.60
2022-12-08T09:40:58.688Z,6.20
2022-12-08T09:43:46.571Z,6.50
2022-12-08T09:46:16.948Z,5.70
2022-12-08T09:48:55.388Z,5.70
2022-12-08T09:51:28.610Z,6.30
2022-12-08T09:54:01.002Z,7.00
2022-12-08T09:56:32.420Z,7.80
2022-12-08T09:59:12.641Z,8.20
2022-12-08T10:01:41.196Z,8.10
2022-12-08T10:04:25.162Z,6.70
2022-12-08T10:07:22.148Z,7.10
2022-12-08T10:10:13.293Z,7.00
2022-12-08T10:12:45.916Z,7.70
2022-12-08T10:15:43.581Z,8.60
2022-12-08T10:18:19.507Z,7.60
2022-12-08T10:20:48.875Z,7.60
2022-12-08T10:23:27.933Z,8.20
2022-12-08T10:26:01.074Z,8.50
2022-12-08T10:28:27.813Z,8.70
2022-12-08T10:30:54.449Z,8.30
2022-12-08T10:33:21.961Z,8.70
2022-12-08T10:35:52.752Z,8.40
2022-12-08T10:38:26.654Z,9.20
2022-12-08T10:41:06.857Z,9.70
2022-12-08T10:43:42.023Z,9.90
2022-12-08T10:46:19.445Z,9.20
2022-12-08T10:49:10.966Z,9.10
2022-12-08T10:51:40.026Z,8.80
2022-12-08T10:54:27.834Z,8.40
2022-12-08T10:56:56.923Z,8.50
2022-12-08T10:59:26.389Z,8.70
2022-12-08T11:01:55.574Z,7.90
2022-12-08T11:04:34.033Z,7.20
2022-12-08T11:07:01.951Z,7.50
2022-12-08T11:09:46.259Z,8.20
2022-12-08T11:12:15.239Z,8.60
2022-12-08T11:14:41.896Z,8.50
2022-12-08T11:17:13.206Z,9.30
2022-12-08T11:19:43.050Z,9.10
2022-12-08T11:22:21.713Z,8.40
2022-12-08T11:25:01.656Z,8.70
2022-12-08T11:27:28.870Z,7.50
2022-12-08T11:29:55.841Z,7.70
2022-12-08T11:32:22.591Z,7.70
2022-12-08T11:34:55.551Z,6.80
2022-12-08T11:37:40.198Z,7.30
2022-12-08T11:40:21.443Z,6.90
2022-12-08T11:43:15.972Z,7.50
2022-12-08T11:45:43.816Z,6.60
2022-12-08T11:48:16.022Z,6.80
2022-12-08T11:51:09.630Z,7.70
2022-12-08T11:53:48.559Z,7.40
2022-12-08T11:56:37.131Z,7.10
2022-12-08T11:59:23.615Z,7.40
2022-12-08T12:01:50.754Z,7.30
2022-12-08T12:04:43.872Z,7.00
2022-12-08T12:07:32.448Z,7.20
2022-12-08T12:10:25.139Z,6.50
2022-12-08T12:13:07.932Z,7.80
2022-12-08T12:15:56.386Z,7.50
2022-12-08T12:18:35.235Z,7.50
2022-12-08T12:21:18.603Z,6.80
2022-12-08T12:23:47.454Z,6.90
2022-12-08T12:26:24.370Z,7.50
2022-12-08T12:29:02.605Z,7.90
2022-12-08T12:31:33.416Z,8.70
2022-12-08T12:34:12.431Z,8.40
2022-12-08T12:36:53.752Z,9.60
2022-12-08T12:39:28.852Z,9.30
2022-12-08T12:41:58.252Z,12.00
2022-12-08T12:44:45.217Z,8.80
2022-12-08T12:47:13.974Z,9.40
2022-12-08T12:49:40.806Z,8.60
2022-12-08T12:52:20.391Z,7.90
2022-12-08T12:54:49.969Z,10.20
2022-12-08T12:57:19.335Z,12.00
2022-12-08T12:59:51.624Z,10.60
2022-12-08T13:02:38.005Z,10.90
2022-12-08T13:05:25.943Z,10.60
2022-12-08T13:08:00.229Z,11.00
2022-12-08T13:10:34.838Z,12.30
2022-12-08T13:13:12.004Z,12.60
2022-12-08T13:15:46.477Z,14.10
2022-12-08T13:18:38.268Z,15.30
2022-12-08T13:21:08.105Z,19.00
2022-12-08T13:23:37.746Z,20.00
2022-12-08T13:26:12.112Z,17.50
2022-12-08T13:29:03.543Z,15.80
2022-12-08T13:31:58.632Z,16.10
2022-12-08T13:34:44.828Z,17.20
2022-12-08T13:37:11.431Z,19.00
2022-12-08T13:40:07.295Z,18.00
2022-12-08T13:42:39.966Z,19.10
2022-12-08T13:45:33.535Z,26.50
2022-12-08T13:57:23.918Z,18.40
2022-12-08T13:59:50.614Z,18.00
2022-12-08T14:02:27.399Z,20.30
2022-12-08T14:05:17.668Z,20.70
2022-12-08T14:07:42.557Z,20.70
2022-12-08T14:10:31.413Z,20.10
2022-12-08T14:13:02.349Z,19.40
2022-12-08T14:15:37.187Z,20.40
2022-12-08T14:18:20.736Z,20.10
2022-12-08T14:21:21.981Z,19.90
2022-12-08T14:23:48.814Z,23.00
2022-12-08T14:26:15.459Z,22.30
2022-12-08T14:28:45.164Z,22.30
2022-12-08T14:31:13.856Z,22.50
2022-12-08T14:33:40.862Z,22.30
2022-12-08T14:36:10.191Z,21.60
2022-12-08T14:38:37.196Z,21.80
2022-12-08T14:41:07.316Z,27.20
2022-12-08T14:43:34.688Z,28.80
2022-12-08T14:46:32.295Z,29.90
2022-12-08T14:48:59.179Z,26.40
2022-12-08T14:51:31.614Z,27.40
2022-12-08T14:54:17.594Z,27.10
2022-12-08T14:56:55.489Z,27.50
2022-12-08T14:59:29.886Z,25.10
2022-12-08T15:02:30.614Z,28.70
2022-12-08T15:05:18.599Z,31.50
2022-12-08T15:08:01.853Z,31.40
2022-12-08T15:10:32.067Z,30.70
2022-12-08T15:13:09.312Z,30.70
2022-12-08T15:15:54.090Z,31.50
2022-12-08T15:18:36.439Z,29.20
2022-12-08T15:21:06.034Z,25.80
2022-12-08T15:23:41.952Z,25.10
2022-12-08T15:26:09.921Z,30.90
2022-12-08T15:28:36.589Z,39.30
2022-12-08T15:31:03.238Z,30.80
2022-12-08T15:33:29.889Z,25.20
2022-12-08T15:35:56.527Z,24.40
2022-12-08T15:38:26.507Z,24.30
2022-12-08T15:40:54.307Z,23.60
2022-12-08T15:43:21.916Z,24.30
2022-12-08T15:45:58.494Z,25.50
2022-12-08T15:48:28.685Z,26.90
2022-12-08T15:50:56.117Z,31.70
2022-12-08T15:53:22.878Z,40.70
2022-12-08T15:56:25.273Z,44.60
2022-12-08T15:58:55.162Z,38.10
2022-12-08T16:01:22.731Z,31.60
2022-12-08T16:09:31.938Z,29.40
2022-12-08T16:12:17.156Z,32.90
2022-12-08T16:17:31.327Z,32.40
2022-12-08T16:19:59.193Z,37.00
2022-12-08T16:22:52.783Z,41.70
2022-12-08T16:25:20.562Z,46.30
2022-12-08T16:28:12.639Z,46.20
2022-12-08T16:30:41.553Z,51.40
2022-12-08T16:33:10.753Z,47.50
2022-12-08T16:35:37.702Z,43.50
2022-12-08T16:38:04.354Z,63.50
2022-12-08T16:40:31.328Z,90.30
2022-12-08T16:42:58.002Z,78.00
2022-12-08T16:45:28.115Z,73.60
2022-12-08T16:47:59.675Z,56.30
2022-12-08T16:50:34.416Z,45.80
2022-12-08T16:53:07.191Z,44.30
2022-12-08T16:55:34.836Z,46.50
2022-12-08T16:58:04.751Z,48.10
2022-12-08T17:00:36.475Z,45.80
2022-12-08T17:03:04.823Z,52.10
2022-12-08T17:05:31.621Z,57.50
2022-12-08T17:07:58.558Z,52.50
2022-12-08T17:10:28.667Z,52.90
2022-12-08T17:12:56.048Z,56.10
2022-12-08T17:15:25.139Z,63.80
2022-12-08T17:17:52.885Z,54.20
2022-12-08T17:20:27.862Z,53.70
2022-12-08T17:22:57.237Z,50.90
2022-12-08T17:25:25.473Z,53.60
2022-12-08T17:27:52.183Z,52.40
2022-12-08T17:30:19.107Z,48.50
2022-12-08T17:32:46.071Z,46.70
2022-12-08T17:35:13.784Z,45.60
2022-12-08T17:37:40.587Z,41.30
2022-12-08T17:40:08.246Z,41.30
2022-12-08T17:42:35.055Z,41.40
2022-12-08T17:45:01.656Z,41.40
2022-12-08T17:47:28.555Z,38.40
2022-12-08T17:49:55.692Z,34.90
2022-12-08T17:52:22.360Z,31.90
2022-12-08T17:54:48.980Z,32.20
2022-12-08T17:57:15.592Z,33.20
2022-12-08T17:59:42.225Z,33.00
2022-12-08T18:02:11.411Z,33.70
2022-12-08T18:04:38.180Z,38.30
2022-12-08T18:07:04.831Z,37.30
2022-12-08T18:09:32.095Z,37.40
2022-12-08T18:11:59.315Z,39.80
2022-12-08T18:14:26.020Z,36.70
2022-12-08T18:16:52.682Z,34.50
2022-12-08T18:19:19.407Z,34.00
2022-12-08T18:21:46.170Z,32.30
2022-12-08T18:24:21.449Z,32.10
2022-12-08T18:26:50.043Z,32.20
2022-12-08T18:29:17.013Z,33.00
2022-12-08T18:31:43.704Z,33.90
2022-12-08T18:34:10.328Z,34.70
2022-12-08T18:36:36.922Z,34.60
2022-12-08T18:39:10.208Z,34.20
2022-12-08T18:41:37.551Z,35.10
2022-12-08T18:44:04.522Z,36.20
2022-12-08T18:46:31.242Z,41.90
2022-12-08T18:48:58.839Z,48.30
2022-12-08T18:51:25.471Z,50.60
2022-12-08T18:53:52.510Z,44.60
2022-12-08T18:56:30.858Z,43.70
2022-12-08T18:59:04.127Z,45.30
2022-12-08T19:01:33.079Z,42.40
2022-12-08T19:04:27.519Z,39.60
2022-12-08T19:06:49.398Z,35.60
2022-12-08T19:09:16.675Z,38.40
2022-12-08T19:11:43.765Z,35.70
2022-12-08T19:14:11.165Z,35.10
2022-12-08T19:16:38.235Z,36.80
2022-12-08T19:19:05.150Z,35.10
2022-12-08T19:21:32.434Z,36.00
2022-12-08T19:23:59.378Z,34.00
2022-12-08T19:26:27.617Z,33.80
2022-12-08T19:28:54.766Z,32.10
2022-12-08T19:31:21.393Z,32.60
2022-12-08T19:33:48.299Z,32.20
2022-12-08T19:36:17.691Z,31.40
2022-12-08T19:39:02.747Z,31.60
2022-12-08T19:41:48.115Z,31.30
2022-12-08T19:44:39.360Z,34.90
2022-12-08T19:47:06.302Z,31.40
2022-12-08T19:49:32.972Z,32.00
2022-12-08T19:52:00.477Z,33.80
2022-12-08T19:54:27.404Z,32.80
2022-12-08T19:56:54.099Z,35.10
2022-12-08T19:59:21.152Z,36.60
2022-12-08T20:01:48.618Z,38.80
2022-12-08T20:04:16.008Z,40.00
2022-12-08T20:06:44.597Z,34.60
2022-12-08T20:09:12.461Z,34.00
2022-12-08T20:11:39.998Z,30.60
2022-12-08T20:14:07.116Z,29.40
2022-12-08T20:16:34.393Z,29.00
2022-12-08T20:19:01.699Z,28.70
2022-12-08T20:21:28.522Z,28.20
2022-12-08T20:23:55.601Z,27.80
2022-12-08T20:26:23.137Z,27.30
2022-12-08T20:28:50.350Z,26.80
2022-12-08T20:31:26.146Z,26.40
2022-12-08T20:33:53.630Z,26.80
2022-12-08T20:36:21.601Z,25.90
2022-12-08T20:38:50.094Z,24.80
2022-12-08T20:41:17.830Z,24.90
2022-12-08T20:43:46.068Z,22.70
2022-12-08T20:46:15.689Z,22.30
2022-12-08T20:48:43.888Z,24.20
2022-12-08T20:51:19.557Z,22.50
2022-12-08T20:53:46.458Z,20.60
2022-12-08T20:56:17.951Z,20.70
2022-12-08T20:58:45.209Z,20.20
2022-12-08T21:01:13.892Z,20.20
2022-12-08T21:03:41.672Z,20.20
2022-12-08T21:06:08.989Z,20.10
2022-12-08T21:08:36.343Z,19.60
2022-12-08T21:11:04.949Z,20.70
2022-12-08T21:13:32.055Z,21.40
2022-12-08T21:15:59.355Z,21.10
2022-12-08T21:18:26.106Z,21.80
2022-12-08T21:21:01.341Z,21.80
2022-12-08T21:23:28.107Z,22.20
2022-12-08T21:25:54.967Z,22.10
2022-12-08T21:28:21.789Z,21.20
2022-12-08T21:30:48.714Z,22.20
2022-12-08T21:33:15.619Z,22.00
2022-12-08T21:35:42.840Z,22.30
2022-12-08T21:38:09.667Z,22.20
2022-12-08T21:40:36.667Z,22.80
2022-12-08T21:43:03.416Z,23.20
2022-12-08T21:45:30.522Z,23.50
2022-12-08T21:47:58.635Z,23.80
2022-12-08T21:50:25.677Z,25.90
2022-12-08T21:52:52.307Z,25.30
2022-12-08T21:55:19.836Z,26.10
2022-12-08T21:57:47.003Z,28.20
2022-12-08T22:00:15.757Z,27.10
2022-12-08T22:02:43.115Z,28.30
2022-12-08T22:05:10.788Z,27.90
2022-12-08T22:07:39.360Z,28.20
2022-12-08T22:10:07.753Z,27.70
2022-12-08T22:12:35.363Z,28.70
2022-12-08T22:15:05.255Z,28.60
2022-12-08T22:17:36.954Z,28.50
2022-12-08T22:20:10.129Z,30.30
2022-12-08T22:22:37.322Z,32.40
2022-12-08T22:25:05.597Z,33.30
2022-12-08T22:27:35.133Z,33.00
2022-12-08T22:30:02.994Z,32.20
2022-12-08T22:32:29.903Z,32.60
2022-12-08T22:34:57.342Z,30.20
2022-12-08T22:37:24.231Z,30.70
2022-12-08T22:39:50.967Z,29.40
2022-12-08T22:42:18.520Z,30.30
2022-12-08T22:44:45.330Z,30.40
2022-12-08T22:47:12.166Z,30.60
2022-12-08T22:49:38.950Z,31.30
2022-12-08T22:52:05.598Z,32.60
2022-12-08T22:54:32.512Z,32.10
2022-12-08T22:56:59.286Z,31.90
2022-12-08T22:59:26.044Z,30.70
2022-12-08T23:01:53.502Z,30.60
2022-12-08T23:04:20.359Z,31.90
2022-12-08T23:06:47.305Z,31.50
2022-12-08T23:09:14.059Z,33.90
2022-12-08T23:11:40.980Z,32.20
2022-12-08T23:14:07.552Z,31.20
2022-12-08T23:16:34.323Z,31.20
2022-12-08T23:19:01.122Z,32.30
2022-12-08T23:21:28.890Z,31.70
2022-12-08T23:23:55.816Z,31.30
2022-12-08T23:26:28.108Z,31.00
2022-12-08T23:29:42.667Z,30.00
2022-12-08T23:32:28.304Z,30.40
2022-12-08T23:34:55.218Z,31.10
2022-12-08T23:37:21.979Z,30.50
2022-12-08T23:39:48.929Z,31.10
2022-12-08T23:42:15.889Z,32.60
2022-12-08T23:44:42.634Z,34.60
2022-12-08T23:47:09.573Z,37.00
2022-12-08T23:49:36.510Z,38.80
2022-12-08T23:52:03.953Z,36.90
2022-12-08T23:54:30.881Z,35.10
2022-12-08T23:56:57.513Z,32.30
2022-12-08T23:59:24.081Z,31.40
